sensor_id;sensor_type;location;lat;lon;timestamp;pressure;altitude;pressure_sealevel;temperature;humidity
64827;BME280;51265;53.972;12.286;2023-05-02T00:00:48;100736.88;;;7.55;86.19
64827;BME280;51265;53.972;12.286;2023-05-02T00:03:15;100733.84;;;7.56;87.26
64827;BME280;51265;53.972;12.286;2023-05-02T00:05:42;100737.44;;;7.57;88.66
64827;BME280;51265;53.972;12.286;2023-05-02T00:08:08;100746.75;;;7.61;90.63
64827;BME280;51265;53.972;12.286;2023-05-02T00:10:35;100757.13;;;7.74;91.38
64827;BME280;51265;53.972;12.286;2023-05-02T00:13:01;100744.78;;;7.77;92.29
64827;BME280;51265;53.972;12.286;2023-05-02T00:15:28;100737.13;;;7.79;93.62
64827;BME280;51265;53.972;12.286;2023-05-02T00:17:54;100739.03;;;7.83;95.04
64827;BME280;51265;53.972;12.286;2023-05-02T00:20:20;100741.75;;;7.88;95.68
64827;BME280;51265;53.972;12.286;2023-05-02T00:22:47;100742.28;;;7.85;96.21
64827;BME280;51265;53.972;12.286;2023-05-02T00:25:14;100746.13;;;7.84;97.38
64827;BME280;51265;53.972;12.286;2023-05-02T00:27:44;100731.34;;;7.75;97.95
64827;BME280;51265;53.972;12.286;2023-05-02T00:30:12;100745.91;;;7.60;98.56
64827;BME280;51265;53.972;12.286;2023-05-02T00:32:39;100745.06;;;7.60;99.35
64827;BME280;51265;53.972;12.286;2023-05-02T00:35:06;100737.41;;;7.52;100.00
64827;BME280;51265;53.972;12.286;2023-05-02T00:37:33;100736.59;;;7.56;100.00
64827;BME280;51265;53.972;12.286;2023-05-02T00:39:59;100739.06;;;7.58;100.00
64827;BME280;51265;53.972;12.286;2023-05-02T00:42:26;100739.06;;;7.63;100.00
64827;BME280;51265;53.972;12.286;2023-05-02T00:44:56;100733.03;;;7.66;100.00
64827;BME280;51265;53.972;12.286;2023-05-02T00:47:22;100739.84;;;7.79;100.00
64827;BME280;51265;53.972;12.286;2023-05-02T00:49:49;100733.00;;;7.86;100.00
64827;BME280;51265;53.972;12.286;2023-05-02T00:52:15;100730.75;;;7.98;100.00
64827;BME280;51265;53.972;12.286;2023-05-02T00:54:42;100723.88;;;8.01;100.00
64827;BME280;51265;53.972;12.286;2023-05-02T00:57:09;100718.09;;;8.08;100.00
64827;BME280;51265;53.972;12.286;2023-05-02T00:59:36;100718.66;;;8.05;100.00
64827;BME280;51265;53.972;12.286;2023-05-02T01:05:02;100713.50;;;7.88;100.00
64827;BME280;51265;53.972;12.286;2023-05-02T01:13:06;100721.78;;;7.62;100.00
64827;BME280;51265;53.972;12.286;2023-05-02T01:15:37;100718.81;;;7.48;100.00
64827;BME280;51265;53.972;12.286;2023-05-02T01:18:05;100715.50;;;7.41;100.00
64827;BME280;51265;53.972;12.286;2023-05-02T01:20:36;100717.97;;;7.33;100.00
64827;BME280;51265;53.972;12.286;2023-05-02T01:28:59;100722.09;;;7.25;100.00
64827;BME280;51265;53.972;12.286;2023-05-02T01:31:47;100719.06;;;7.27;100.00
64827;BME280;51265;53.972;12.286;2023-05-02T01:34:16;100721.00;;;7.21;100.00
64827;BME280;51265;53.972;12.286;2023-05-02T01:36:44;100716.63;;;7.25;100.00
64827;BME280;51265;53.972;12.286;2023-05-02T01:39:13;100725.38;;;7.27;100.00
64827;BME280;51265;53.972;12.286;2023-05-02T01:41:42;100725.94;;;7.24;100.00
64827;BME280;51265;53.972;12.286;2023-05-02T01:44:10;100722.63;;;7.22;100.00
64827;BME280;51265;53.972;12.286;2023-05-02T01:46:39;100730.31;;;7.25;100.00
64827;BME280;51265;53.972;12.286;2023-05-02T01:49:07;100734.44;;;7.28;100.00
64827;BME280;51265;53.972;12.286;2023-05-02T01:51:45;100725.94;;;7.24;100.00
64827;BME280;51265;53.972;12.286;2023-05-02T01:54:14;100730.31;;;7.20;100.00
64827;BME280;51265;53.972;12.286;2023-05-02T01:56:41;100730.56;;;7.18;100.00
64827;BME280;51265;53.972;12.286;2023-05-02T01:59:13;100736.63;;;7.15;100.00
64827;BME280;51265;53.972;12.286;2023-05-02T02:01:42;100730.28;;;7.10;100.00
64827;BME280;51265;53.972;12.286;2023-05-02T02:04:10;100739.06;;;7.12;100.00
64827;BME280;51265;53.972;12.286;2023-05-02T02:06:38;100744.00;;;6.94;100.00
64827;BME280;51265;53.972;12.286;2023-05-02T02:09:08;100741.22;;;6.89;100.00
64827;BME280;51265;53.972;12.286;2023-05-02T02:12:04;100751.34;;;6.79;100.00
64827;BME280;51265;53.972;12.286;2023-05-02T02:14:40;100751.88;;;6.65;100.00
64827;BME280;51265;53.972;12.286;2023-05-02T02:17:15;100750.47;;;6.58;100.00
64827;BME280;51265;53.972;12.286;2023-05-02T02:19:48;100756.47;;;6.55;100.00
64827;BME280;51265;53.972;12.286;2023-05-02T02:22:18;100753.47;;;6.56;100.00
64827;BME280;51265;53.972;12.286;2023-05-02T02:24:46;100758.09;;;6.45;100.00
64827;BME280;51265;53.972;12.286;2023-05-02T02:27:13;100751.50;;;6.41;100.00
64827;BME280;51265;53.972;12.286;2023-05-02T02:29:40;100763.25;;;6.37;100.00
64827;BME280;51265;53.972;12.286;2023-05-02T02:32:06;100764.06;;;6.37;100.00
64827;BME280;51265;53.972;12.286;2023-05-02T02:34:33;100765.72;;;6.43;100.00
64827;BME280;51265;53.972;12.286;2023-05-02T02:37:08;100777.28;;;6.56;100.00
64827;BME280;51265;53.972;12.286;2023-05-02T02:40:07;100779.78;;;6.72;100.00
64827;BME280;51265;53.972;12.286;2023-05-02T02:48:18;100769.75;;;7.14;100.00
64827;BME280;51265;53.972;12.286;2023-05-02T02:51:13;100776.88;;;7.35;100.00
64827;BME280;51265;53.972;12.286;2023-05-02T02:54:02;100778.00;;;7.49;100.00
64827;BME280;51265;53.972;12.286;2023-05-02T02:56:42;100775.50;;;7.58;100.00
64827;BME280;51265;53.972;12.286;2023-05-02T02:59:25;100780.16;;;7.68;100.00
64827;BME280;51265;53.972;12.286;2023-05-02T03:02:07;100779.88;;;7.74;100.00
64827;BME280;51265;53.972;12.286;2023-05-02T03:04:36;100786.47;;;7.79;100.00
64827;BME280;51265;53.972;12.286;2023-05-02T03:07:03;100786.97;;;7.86;100.00
64827;BME280;51265;53.972;12.286;2023-05-02T03:09:46;100797.13;;;7.95;100.00
64827;BME280;51265;53.972;12.286;2023-05-02T03:12:18;100781.22;;;8.03;100.00
64827;BME280;51265;53.972;12.286;2023-05-02T03:14:45;100791.09;;;8.04;100.00
64827;BME280;51265;53.972;12.286;2023-05-02T03:17:11;100789.44;;;8.08;100.00
64827;BME280;51265;53.972;12.286;2023-05-02T03:19:38;100791.34;;;8.12;100.00
64827;BME280;51265;53.972;12.286;2023-05-02T03:22:05;100799.25;;;8.19;100.00
64827;BME280;51265;53.972;12.286;2023-05-02T03:24:34;100793.78;;;8.24;100.00
64827;BME280;51265;53.972;12.286;2023-05-02T03:27:00;100796.53;;;8.24;100.00
64827;BME280;51265;53.972;12.286;2023-05-02T03:29:33;100789.94;;;8.25;100.00
64827;BME280;51265;53.972;12.286;2023-05-02T03:31:59;100790.47;;;8.27;100.00
64827;BME280;51265;53.972;12.286;2023-05-02T03:34:26;100808.56;;;8.33;100.00
64827;BME280;51265;53.972;12.286;2023-05-02T03:36:53;100808.59;;;8.28;100.00
64827;BME280;51265;53.972;12.286;2023-05-02T03:39:20;100812.41;;;8.27;100.00
64827;BME280;51265;53.972;12.286;2023-05-02T03:41:47;100809.94;;;8.41;100.00
64827;BME280;51265;53.972;12.286;2023-05-02T03:44:18;100805.81;;;8.38;100.00
64827;BME280;51265;53.972;12.286;2023-05-02T03:46:44;100818.72;;;8.43;100.00
64827;BME280;51265;53.972;12.286;2023-05-02T03:49:12;100819.25;;;8.40;100.00
64827;BME280;51265;53.972;12.286;2023-05-02T03:51:41;100817.88;;;8.42;100.00
64827;BME280;51265;53.972;12.286;2023-05-02T03:54:08;100819.53;;;8.43;100.00
64827;BME280;51265;53.972;12.286;2023-05-02T03:56:38;100825.59;;;8.40;100.00
64827;BME280;51265;53.972;12.286;2023-05-02T03:59:14;100839.03;;;8.42;100.00
64827;BME280;51265;53.972;12.286;2023-05-02T04:01:41;100844.78;;;8.35;100.00
64827;BME280;51265;53.972;12.286;2023-05-02T04:04:08;100860.19;;;8.01;100.00
64827;BME280;51265;53.972;12.286;2023-05-02T04:06:43;100886.25;;;7.62;100.00
64827;BME280;51265;53.972;12.286;2023-05-02T04:09:10;100877.19;;;7.41;100.00
64827;BME280;51265;53.972;12.286;2023-05-02T04:11:46;100891.38;;;7.23;100.00
64827;BME280;51265;53.972;12.286;2023-05-02T04:14:13;100895.44;;;7.10;100.00
64827;BME280;51265;53.972;12.286;2023-05-02T04:16:46;100904.47;;;7.06;100.00
64827;BME280;51265;53.972;12.286;2023-05-02T04:19:13;100912.16;;;7.04;100.00
64827;BME280;51265;53.972;12.286;2023-05-02T04:21:40;100919.69;;;6.76;100.00
64827;BME280;51265;53.972;12.286;2023-05-02T04:24:08;100928.56;;;6.46;100.00
64827;BME280;51265;53.972;12.286;2023-05-02T04:26:35;100923.09;;;6.09;100.00
64827;BME280;51265;53.972;12.286;2023-05-02T04:29:06;100927.94;;;6.02;100.00
64827;BME280;51265;53.972;12.286;2023-05-02T04:31:33;100935.63;;;6.05;100.00
64827;BME280;51265;53.972;12.286;2023-05-02T04:34:00;100929.31;;;5.99;100.00
64827;BME280;51265;53.972;12.286;2023-05-02T04:36:32;100930.75;;;6.07;100.00
64827;BME280;51265;53.972;12.286;2023-05-02T04:38:59;100938.97;;;6.12;100.00
64827;BME280;51265;53.972;12.286;2023-05-02T04:41:26;100939.53;;;6.14;100.00
64827;BME280;51265;53.972;12.286;2023-05-02T04:43:58;100939.53;;;6.14;100.00
64827;BME280;51265;53.972;12.286;2023-05-02T04:46:25;100934.13;;;6.19;100.00
64827;BME280;51265;53.972;12.286;2023-05-02T04:48:52;100943.97;;;6.20;100.00
64827;BME280;51265;53.972;12.286;2023-05-02T04:51:19;100954.31;;;6.18;100.00
64827;BME280;51265;53.972;12.286;2023-05-02T04:53:48;100951.03;;;6.16;100.00
64827;BME280;51265;53.972;12.286;2023-05-02T04:56:15;100951.00;;;6.11;100.00
64827;BME280;51265;53.972;12.286;2023-05-02T04:58:42;100958.09;;;6.07;100.00
64827;BME280;51265;53.972;12.286;2023-05-02T05:01:09;100958.66;;;6.14;100.00
64827;BME280;51265;53.972;12.286;2023-05-02T05:03:36;100955.81;;;5.98;100.00
64827;BME280;51265;53.972;12.286;2023-05-02T05:06:04;100968.91;;;5.96;100.00
64827;BME280;51265;53.972;12.286;2023-05-02T05:08:30;100969.94;;;5.90;100.00
64827;BME280;51265;53.972;12.286;2023-05-02T05:10:58;100969.44;;;5.93;100.00
64827;BME280;51265;53.972;12.286;2023-05-02T05:13:25;100988.88;;;5.97;100.00
64827;BME280;51265;53.972;12.286;2023-05-02T05:15:52;100984.22;;;5.97;100.00
64827;BME280;51265;53.972;12.286;2023-05-02T05:18:23;100984.31;;;6.03;100.00
64827;BME280;51265;53.972;12.286;2023-05-02T05:20:49;100986.72;;;5.99;100.00
64827;BME280;51265;53.972;12.286;2023-05-02T05:23:15;100983.69;;;5.95;100.00
64827;BME280;51265;53.972;12.286;2023-05-02T05:25:42;100971.56;;;5.91;100.00
64827;BME280;51265;53.972;12.286;2023-05-02T05:28:08;100980.94;;;5.95;100.00
64827;BME280;51265;53.972;12.286;2023-05-02T05:30:36;100974.38;;;5.96;100.00
64827;BME280;51265;53.972;12.286;2023-05-02T05:33:06;100989.69;;;5.97;100.00
64827;BME280;51265;53.972;12.286;2023-05-02T05:35:33;100984.31;;;6.03;100.00
64827;BME280;51265;53.972;12.286;2023-05-02T05:38:01;100995.97;;;6.25;100.00
64827;BME280;51265;53.972;12.286;2023-05-02T05:40:29;101005.31;;;6.29;100.00
64827;BME280;51265;53.972;12.286;2023-05-02T05:42:58;101002.38;;;6.09;100.00
64827;BME280;51265;53.972;12.286;2023-05-02T05:45:29;100998.44;;;5.94;100.00
64827;BME280;51265;53.972;12.286;2023-05-02T05:47:55;101004.38;;;5.91;100.00
64827;BME280;51265;53.972;12.286;2023-05-02T05:50:24;101025.13;;;5.87;100.00
64827;BME280;51265;53.972;12.286;2023-05-02T05:52:50;101008.72;;;5.60;100.00
64827;BME280;51265;53.972;12.286;2023-05-02T05:55:17;101011.78;;;5.42;100.00
64827;BME280;51265;53.972;12.286;2023-05-02T05:57:44;101008.72;;;5.38;100.00
64827;BME280;51265;53.972;12.286;2023-05-02T06:00:11;101019.72;;;5.43;100.00
64827;BME280;51265;53.972;12.286;2023-05-02T06:02:48;101033.53;;;5.59;100.00
64827;BME280;51265;53.972;12.286;2023-05-02T06:05:23;101008.50;;;5.67;100.00
64827;BME280;51265;53.972;12.286;2023-05-02T06:07:50;101016.56;;;5.79;100.00
64827;BME280;51265;53.972;12.286;2023-05-02T06:10:17;101037.38;;;6.07;100.00
64827;BME280;51265;53.972;12.286;2023-05-02T06:12:43;101018.44;;;6.27;100.00
64827;BME280;51265;53.972;12.286;2023-05-02T06:15:12;101021.72;;;6.29;100.00
64827;BME280;51265;53.972;12.286;2023-05-02T06:17:39;101024.03;;;5.88;100.00
64827;BME280;51265;53.972;12.286;2023-05-02T06:20:06;101026.97;;;5.82;100.00
64827;BME280;51265;53.972;12.286;2023-05-02T06:22:34;101027.69;;;5.72;100.00
64827;BME280;51265;53.972;12.286;2023-05-02T06:25:00;101025.84;;;5.78;100.00
64827;BME280;51265;53.972;12.286;2023-05-02T06:27:26;101023.63;;;5.74;100.00
64827;BME280;51265;53.972;12.286;2023-05-02T06:29:53;101030.16;;;5.95;100.00
64827;BME280;51265;53.972;12.286;2023-05-02T06:32:19;101027.44;;;5.95;100.00
64827;BME280;51265;53.972;12.286;2023-05-02T06:34:46;101035.66;;;6.01;100.00
64827;BME280;51265;53.972;12.286;2023-05-02T06:37:13;101020.06;;;6.28;100.00
64827;BME280;51265;53.972;12.286;2023-05-02T06:39:39;101024.38;;;6.19;100.00
64827;BME280;51265;53.972;12.286;2023-05-02T06:42:05;101015.75;;;6.05;100.00
64827;BME280;51265;53.972;12.286;2023-05-02T06:44:33;101035.25;;;6.14;100.00
64827;BME280;51265;53.972;12.286;2023-05-02T06:46:59;101039.31;;;6.06;100.00
64827;BME280;51265;53.972;12.286;2023-05-02T06:49:26;101050.38;;;5.94;100.00
64827;BME280;51265;53.972;12.286;2023-05-02T06:51:52;101043.31;;;5.98;100.00
64827;BME280;51265;53.972;12.286;2023-05-02T06:54:18;101043.41;;;6.09;100.00
64827;BME280;51265;53.972;12.286;2023-05-02T06:56:46;101053.31;;;6.15;100.00
64827;BME280;51265;53.972;12.286;2023-05-02T06:59:13;101058.44;;;6.38;100.00
64827;BME280;51265;53.972;12.286;2023-05-02T07:01:44;101058.13;;;6.35;100.00
64827;BME280;51265;53.972;12.286;2023-05-02T07:04:11;101062.94;;;6.49;100.00
64827;BME280;51265;53.972;12.286;2023-05-02T07:06:38;101070.63;;;6.53;100.00
64827;BME280;51265;53.972;12.286;2023-05-02T07:09:05;101073.09;;;6.54;100.00
64827;BME280;51265;53.972;12.286;2023-05-02T07:11:31;101079.13;;;6.56;100.00
64827;BME280;51265;53.972;12.286;2023-05-02T07:13:57;101085.91;;;6.48;100.00
64827;BME280;51265;53.972;12.286;2023-05-02T07:16:24;101078.19;;;6.40;100.00
64827;BME280;51265;53.972;12.286;2023-05-02T07:18:50;101078.63;;;6.27;100.00
64827;BME280;51265;53.972;12.286;2023-05-02T07:21:16;101058.72;;;6.10;97.85
64827;BME280;51265;53.972;12.286;2023-05-02T07:23:44;101044.28;;;6.14;95.75
64827;BME280;51265;53.972;12.286;2023-05-02T07:26:10;101054.97;;;6.16;94.59
64827;BME280;51265;53.972;12.286;2023-05-02T07:28:37;101050.56;;;6.42;93.88
64827;BME280;51265;53.972;12.286;2023-05-02T07:31:03;101053.66;;;6.56;92.26
64827;BME280;51265;53.972;12.286;2023-05-02T07:33:29;101048.66;;;6.47;90.79
64827;BME280;51265;53.972;12.286;2023-05-02T07:35:56;101060.38;;;6.70;90.67
64827;BME280;51265;53.972;12.286;2023-05-02T07:38:22;101053.03;;;6.81;88.70
64827;BME280;51265;53.972;12.286;2023-05-02T07:40:49;101052.31;;;6.95;88.67
64827;BME280;51265;53.972;12.286;2023-05-02T07:43:15;101062.63;;;7.26;88.93
64827;BME280;51265;53.972;12.286;2023-05-02T07:45:41;101046.50;;;7.39;86.32
64827;BME280;51265;53.972;12.286;2023-05-02T07:48:08;101032.16;;;7.17;86.07
64827;BME280;51265;53.972;12.286;2023-05-02T07:50:34;101089.50;;;7.29;88.06
64827;BME280;51265;53.972;12.286;2023-05-02T07:53:00;101073.91;;;7.39;88.54
64827;BME280;51265;53.972;12.286;2023-05-02T07:55:27;101065.22;;;7.53;86.91
64827;BME280;51265;53.972;12.286;2023-05-02T07:57:54;101055.19;;;7.79;85.96
64827;BME280;51265;53.972;12.286;2023-05-02T08:00:21;101074.97;;;7.96;87.39
64827;BME280;51265;53.972;12.286;2023-05-02T08:02:47;101058.06;;;7.46;87.34
64827;BME280;51265;53.972;12.286;2023-05-02T08:05:13;101072.88;;;7.45;88.05
64827;BME280;51265;53.972;12.286;2023-05-02T08:07:40;101120.19;;;7.88;89.23
64827;BME280;51265;53.972;12.286;2023-05-02T08:10:06;101072.81;;;7.35;87.98
64827;BME280;51265;53.972;12.286;2023-05-02T08:12:38;101062.16;;;6.91;87.35
64827;BME280;51265;53.972;12.286;2023-05-02T08:15:10;101080.31;;;7.03;87.57
64827;BME280;51265;53.972;12.286;2023-05-02T08:17:38;101094.00;;;7.55;87.11
64827;BME280;51265;53.972;12.286;2023-05-02T08:20:04;101081.00;;;7.30;86.27
64827;BME280;51265;53.972;12.286;2023-05-02T08:22:31;101067.88;;;7.32;84.91
64827;BME280;51265;53.972;12.286;2023-05-02T08:24:57;101072.78;;;7.30;85.01
64827;BME280;51265;53.972;12.286;2023-05-02T08:27:24;101070.09;;;7.40;84.73
64827;BME280;51265;53.972;12.286;2023-05-02T08:29:50;101059.47;;;7.02;82.75
64827;BME280;51265;53.972;12.286;2023-05-02T08:32:16;101052.25;;;6.85;82.09
64827;BME280;51265;53.972;12.286;2023-05-02T08:34:43;101116.84;;;7.76;84.37
64827;BME280;51265;53.972;12.286;2023-05-02T08:37:09;101081.19;;;7.71;82.83
64827;BME280;51265;53.972;12.286;2023-05-02T08:39:37;101075.53;;;7.30;81.39
64827;BME280;51265;53.972;12.286;2023-05-02T08:42:07;101081.34;;;7.44;82.32
64827;BME280;51265;53.972;12.286;2023-05-02T08:44:33;101094.78;;;7.45;82.65
64827;BME280;51265;53.972;12.286;2023-05-02T08:47:14;101080.41;;;7.23;82.24
64827;BME280;51265;53.972;12.286;2023-05-02T08:49:41;101084.66;;;7.46;81.09
64827;BME280;51265;53.972;12.286;2023-05-02T08:52:08;101069.00;;;7.36;79.05
64827;BME280;51265;53.972;12.286;2023-05-02T08:54:36;101087.88;;;7.33;79.23
64827;BME280;51265;53.972;12.286;2023-05-02T08:57:04;101121.72;;;7.59;80.97
64827;BME280;51265;53.972;12.286;2023-05-02T08:59:30;101134.50;;;8.01;81.23
64827;BME280;51265;53.972;12.286;2023-05-02T09:02:00;101148.28;;;8.16;81.42
64827;BME280;51265;53.972;12.286;2023-05-02T09:04:31;101128.19;;;8.00;80.78
64827;BME280;51265;53.972;12.286;2023-05-02T09:07:00;101115.44;;;7.68;78.84
64827;BME280;51265;53.972;12.286;2023-05-02T09:09:27;101112.19;;;7.77;79.36
64827;BME280;51265;53.972;12.286;2023-05-02T09:11:54;101130.63;;;7.86;79.76
64827;BME280;51265;53.972;12.286;2023-05-02T09:14:26;101119.53;;;7.61;79.42
64827;BME280;51265;53.972;12.286;2023-05-02T09:16:58;101138.25;;;7.74;79.70
64827;BME280;51265;53.972;12.286;2023-05-02T09:19:25;101141.16;;;8.20;78.12
64827;BME280;51265;53.972;12.286;2023-05-02T09:21:58;101152.50;;;8.54;78.80
64827;BME280;51265;53.972;12.286;2023-05-02T09:24:25;101122.56;;;8.37;76.87
64827;BME280;51265;53.972;12.286;2023-05-02T09:27:03;101113.97;;;8.13;76.53
64827;BME280;51265;53.972;12.286;2023-05-02T09:29:31;101135.97;;;8.34;77.17
64827;BME280;51265;53.972;12.286;2023-05-02T09:32:02;101142.34;;;8.65;76.15
64827;BME280;51265;53.972;12.286;2023-05-02T09:34:29;101144.84;;;8.92;75.96
64827;BME280;51265;53.972;12.286;2023-05-02T09:36:56;101123.69;;;8.77;75.35
64827;BME280;51265;53.972;12.286;2023-05-02T09:39:26;101120.91;;;8.57;74.91
64827;BME280;51265;53.972;12.286;2023-05-02T09:41:54;101131.91;;;8.52;75.13
64827;BME280;51265;53.972;12.286;2023-05-02T09:44:23;101116.94;;;8.07;74.25
64827;BME280;51265;53.972;12.286;2023-05-02T09:46:51;101110.03;;;7.79;73.58
64827;BME280;51265;53.972;12.286;2023-05-02T09:49:26;101136.13;;;7.91;74.48
64827;BME280;51265;53.972;12.286;2023-05-02T09:52:17;101152.66;;;8.22;75.39
64827;BME280;51265;53.972;12.286;2023-05-02T09:54:46;101147.22;;;8.32;74.03
64827;BME280;51265;53.972;12.286;2023-05-02T09:57:15;101135.16;;;8.28;72.65
64827;BME280;51265;53.972;12.286;2023-05-02T09:59:54;101126.34;;;8.31;72.57
64827;BME280;51265;53.972;12.286;2023-05-02T10:02:21;101178.09;;;9.01;73.37
64827;BME280;51265;53.972;12.286;2023-05-02T10:04:48;101140.41;;;8.45;72.50
64827;BME280;51265;53.972;12.286;2023-05-02T10:07:16;101113.09;;;7.97;72.19
64827;BME280;51265;53.972;12.286;2023-05-02T10:09:43;101111.38;;;7.76;72.16
64827;BME280;51265;53.972;12.286;2023-05-02T10:12:13;101155.50;;;8.37;72.85
64827;BME280;51265;53.972;12.286;2023-05-02T10:14:46;101189.59;;;9.03;73.46
64827;BME280;51265;53.972;12.286;2023-05-02T10:17:21;101158.78;;;8.39;72.42
64827;BME280;51265;53.972;12.286;2023-05-02T10:20:03;101135.09;;;8.13;72.47
64827;BME280;51265;53.972;12.286;2023-05-02T10:22:30;101177.53;;;8.78;72.67
64827;BME280;51265;53.972;12.286;2023-05-02T10:24:58;101184.94;;;9.34;72.24
64827;BME280;51265;53.972;12.286;2023-05-02T10:27:25;101169.00;;;8.75;73.42
64827;BME280;51265;53.972;12.286;2023-05-02T10:29:52;101153.78;;;8.26;73.15
64827;BME280;51265;53.972;12.286;2023-05-02T10:32:21;101181.88;;;8.64;73.32
64827;BME280;51265;53.972;12.286;2023-05-02T10:34:49;101160.50;;;8.71;72.42
64827;BME280;51265;53.972;12.286;2023-05-02T10:37:17;101158.84;;;8.80;72.22
64827;BME280;51265;53.972;12.286;2023-05-02T10:39:44;101171.78;;;9.00;72.28
64827;BME280;51265;53.972;12.286;2023-05-02T10:42:10;101179.63;;;9.68;71.52
64827;BME280;51265;53.972;12.286;2023-05-02T10:44:39;101167.88;;;9.47;70.67
64827;BME280;51265;53.972;12.286;2023-05-02T10:47:22;101148.41;;;8.87;70.83
64827;BME280;51265;53.972;12.286;2023-05-02T10:49:54;101150.03;;;8.63;70.95
64827;BME280;51265;53.972;12.286;2023-05-02T10:52:30;101162.97;;;8.67;71.93
64827;BME280;51265;53.972;12.286;2023-05-02T10:55:20;101187.66;;;8.78;72.37
64827;BME280;51265;53.972;12.286;2023-05-02T11:00:27;101153.03;;;8.56;70.48
64827;BME280;51265;53.972;12.286;2023-05-02T11:02:58;101173.41;;;8.81;71.54
64827;BME280;51265;53.972;12.286;2023-05-02T11:05:26;101210.50;;;9.50;72.07
64827;BME280;51265;53.972;12.286;2023-05-02T11:10:40;101168.13;;;9.40;70.54
64827;BME280;51265;53.972;12.286;2023-05-02T11:13:07;101165.38;;;9.56;69.88
64827;BME280;51265;53.972;12.286;2023-05-02T11:20:27;101125.34;;;9.04;69.08
64827;BME280;51265;53.972;12.286;2023-05-02T11:22:55;101148.41;;;8.97;69.79
64827;BME280;51265;53.972;12.286;2023-05-02T11:27:55;101172.53;;;9.36;69.67
64827;BME280;51265;53.972;12.286;2023-05-02T11:30:42;101178.97;;;10.02;68.98
64827;BME280;51265;53.972;12.286;2023-05-02T11:35:35;101199.97;;;9.77;70.13
64827;BME280;51265;53.972;12.286;2023-05-02T11:38:05;101201.50;;;10.09;68.95
64827;BME280;51265;53.972;12.286;2023-05-02T11:40:31;101167.28;;;10.35;66.88
64827;BME280;51265;53.972;12.286;2023-05-02T11:42:59;101158.59;;;10.08;66.30
64827;BME280;51265;53.972;12.286;2023-05-02T11:45:35;101166.19;;;10.31;66.55
64827;BME280;51265;53.972;12.286;2023-05-02T11:48:06;101169.50;;;10.23;66.30
64827;BME280;51265;53.972;12.286;2023-05-02T11:50:33;101134.28;;;10.30;64.12
64827;BME280;51265;53.972;12.286;2023-05-02T11:52:59;101162.22;;;10.53;65.34
64827;BME280;51265;53.972;12.286;2023-05-02T11:55:26;101161.47;;;10.81;64.64
64827;BME280;51265;53.972;12.286;2023-05-02T11:57:52;101213.91;;;11.39;65.58
64827;BME280;51265;53.972;12.286;2023-05-02T12:00:26;101190.69;;;11.45;64.59
64827;BME280;51265;53.972;12.286;2023-05-02T12:02:52;101135.81;;;11.15;63.24
64827;BME280;51265;53.972;12.286;2023-05-02T12:05:27;101156.69;;;10.58;64.53
64827;BME280;51265;53.972;12.286;2023-05-02T12:07:57;101143.25;;;9.91;65.17
64827;BME280;51265;53.972;12.286;2023-05-02T12:10:34;101182.56;;;10.62;65.13
64827;BME280;51265;53.972;12.286;2023-05-02T12:13:33;101189.41;;;11.04;64.56
64827;BME280;51265;53.972;12.286;2023-05-02T12:16:00;101195.34;;;11.16;64.80
64827;BME280;51265;53.972;12.286;2023-05-02T12:18:26;101165.53;;;11.23;62.85
64827;BME280;51265;53.972;12.286;2023-05-02T12:20:54;101102.88;;;10.31;62.38
64827;BME280;51265;53.972;12.286;2023-05-02T12:23:22;101132.13;;;10.17;63.65
64827;BME280;51265;53.972;12.286;2023-05-02T12:25:49;101227.16;;;11.03;66.37
64827;BME280;51265;53.972;12.286;2023-05-02T12:28:17;101136.81;;;10.61;62.32
64827;BME280;51265;53.972;12.286;2023-05-02T12:30:47;101153.19;;;10.81;62.68
64827;BME280;51265;53.972;12.286;2023-05-02T12:33:13;101163.03;;;10.53;63.92
64827;BME280;51265;53.972;12.286;2023-05-02T12:35:40;101173.34;;;10.37;64.89
64827;BME280;51265;53.972;12.286;2023-05-02T12:38:08;101173.22;;;10.53;64.59
64827;BME280;51265;53.972;12.286;2023-05-02T12:40:35;101176.13;;;10.22;64.65
64827;BME280;51265;53.972;12.286;2023-05-02T12:43:03;101171.78;;;10.11;64.49
64827;BME280;51265;53.972;12.286;2023-05-02T12:45:33;101167.34;;;10.15;62.93
64827;BME280;51265;53.972;12.286;2023-05-02T12:48:17;101172.19;;;10.43;63.41
64827;BME280;51265;53.972;12.286;2023-05-02T12:50:44;101168.88;;;10.46;63.03
64827;BME280;51265;53.972;12.286;2023-05-02T12:53:11;101219.88;;;10.83;64.00
64827;BME280;51265;53.972;12.286;2023-05-02T12:55:37;101215.50;;;11.16;62.56
64827;BME280;51265;53.972;12.286;2023-05-02T12:58:05;101181.34;;;10.73;61.34
64827;BME280;51265;53.972;12.286;2023-05-02T13:00:34;101174.22;;;10.72;60.44
64827;BME280;51265;53.972;12.286;2023-05-02T13:03:01;101163.97;;;10.78;60.24
64827;BME280;51265;53.972;12.286;2023-05-02T13:05:27;101208.56;;;11.19;61.74
64827;BME280;51265;53.972;12.286;2023-05-02T13:07:53;101178.97;;;11.01;60.28
64827;BME280;51265;53.972;12.286;2023-05-02T13:10:22;101202.78;;;11.50;60.98
64827;BME280;51265;53.972;12.286;2023-05-02T13:12:50;101155.91;;;11.20;58.92
64827;BME280;51265;53.972;12.286;2023-05-02T13:15:17;101200.88;;;11.45;60.09
64827;BME280;51265;53.972;12.286;2023-05-02T13:17:44;101158.94;;;11.19;59.16
64827;BME280;51265;53.972;12.286;2023-05-02T13:20:11;101177.78;;;11.07;59.58
64827;BME280;51265;53.972;12.286;2023-05-02T13:22:37;101174.91;;;11.22;58.63
64827;BME280;51265;53.972;12.286;2023-05-02T13:25:04;101211.53;;;11.57;59.84
64827;BME280;51265;53.972;12.286;2023-05-02T13:27:32;101180.81;;;11.39;59.39